sensor_id;sensor_type;location;lat;lon;timestamp;temperature;humidity
78297;DHT22;67555;47.660;19.622;2023-02-08T00:00:41;-1.50;62.90
78297;DHT22;67555;47.660;19.622;2023-02-08T00:03:07;-1.50;63.00
78297;DHT22;67555;47.660;19.622;2023-02-08T00:05:33;-1.40;63.00
78297;DHT22;67555;47.660;19.622;2023-02-08T00:07:58;-1.30;63.00
78297;DHT22;67555;47.660;19.622;2023-02-08T00:10:24;-1.30;63.00
78297;DHT22;67555;47.660;19.622;2023-02-08T00:12:50;-1.30;62.90
78297;DHT22;67555;47.660;19.622;2023-02-08T00:15:20;-1.30;63.00
78297;DHT22;67555;47.660;19.622;2023-02-08T00:17:45;-1.30;62.90
78297;DHT22;67555;47.660;19.622;2023-02-08T00:20:13;-1.30;62.90
78297;DHT22;67555;47.660;19.622;2023-02-08T00:22:40;-1.20;62.90
78297;DHT22;67555;47.660;19.622;2023-02-08T00:25:06;-1.10;62.70
78297;DHT22;67555;47.660;19.622;2023-02-08T00:27:32;-1.10;62.60
78297;DHT22;67555;47.660;19.622;2023-02-08T00:29:58;-1.10;62.60
78297;DHT22;67555;47.660;19.622;2023-02-08T00:32:24;-1.10;62.70
78297;DHT22;67555;47.660;19.622;2023-02-08T00:34:50;-1.10;62.80
78297;DHT22;67555;47.660;19.622;2023-02-08T00:37:16;-1.10;62.90
78297;DHT22;67555;47.660;19.622;2023-02-08T00:39:42;-1.10;62.90
78297;DHT22;67555;47.660;19.622;2023-02-08T00:42:10;-1.10;62.90
78297;DHT22;67555;47.660;19.622;2023-02-08T00:44:36;-1.10;63.00
78297;DHT22;67555;47.660;19.622;2023-02-08T00:47:01;-1.10;63.00
78297;DHT22;67555;47.660;19.622;2023-02-08T00:49:27;-1.00;63.00
78297;DHT22;67555;47.660;19.622;2023-02-08T00:51:53;-1.00;63.10
78297;DHT22;67555;47.660;19.622;2023-02-08T00:54:20;-0.90;63.10
78297;DHT22;67555;47.660;19.622;2023-02-08T00:56:46;-0.90;63.20
78297;DHT22;67555;47.660;19.622;2023-02-08T00:59:14;-0.80;63.20
78297;DHT22;67555;47.660;19.622;2023-02-08T01:01:40;-0.70;63.20
78297;DHT22;67555;47.660;19.622;2023-02-08T01:04:07;-0.70;63.20
78297;DHT22;67555;47.660;19.622;2023-02-08T01:06:33;-0.70;63.20
78297;DHT22;67555;47.660;19.622;2023-02-08T01:08:58;-0.70;63.40
78297;DHT22;67555;47.660;19.622;2023-02-08T01:11:26;-0.70;63.40
78297;DHT22;67555;47.660;19.622;2023-02-08T01:13:55;-0.60;63.40
78297;DHT22;67555;47.660;19.622;2023-02-08T01:16:26;-0.60;63.50
78297;DHT22;67555;47.660;19.622;2023-02-08T01:18:54;-0.60;63.70
78297;DHT22;67555;47.660;19.622;2023-02-08T01:21:22;-0.60;63.80
78297;DHT22;67555;47.660;19.622;2023-02-08T01:23:49;-0.60;63.90
78297;DHT22;67555;47.660;19.622;2023-02-08T01:26:16;-0.60;63.90
78297;DHT22;67555;47.660;19.622;2023-02-08T01:28:44;-0.60;64.00
78297;DHT22;67555;47.660;19.622;2023-02-08T01:31:13;-0.50;63.80
78297;DHT22;67555;47.660;19.622;2023-02-08T01:33:40;-0.40;63.50
78297;DHT22;67555;47.660;19.622;2023-02-08T01:36:06;-0.40;63.50
78297;DHT22;67555;47.660;19.622;2023-02-08T01:38:32;-0.40;63.50
78297;DHT22;67555;47.660;19.622;2023-02-08T01:40:59;-0.30;63.50
78297;DHT22;67555;47.660;19.622;2023-02-08T01:43:33;-0.30;63.60
78297;DHT22;67555;47.660;19.622;2023-02-08T01:45:59;-0.20;63.40
78297;DHT22;67555;47.660;19.622;2023-02-08T01:48:36;-0.10;63.30
78297;DHT22;67555;47.660;19.622;2023-02-08T01:51:12;0.00;63.00
78297;DHT22;67555;47.660;19.622;2023-02-08T01:53:39;0.00;62.90
78297;DHT22;67555;47.660;19.622;2023-02-08T01:56:14;0.20;62.50
78297;DHT22;67555;47.660;19.622;2023-02-08T01:58:45;0.40;62.00
78297;DHT22;67555;47.660;19.622;2023-02-08T02:01:14;0.40;61.70
78297;DHT22;67555;47.660;19.622;2023-02-08T02:03:40;0.40;61.60
78297;DHT22;67555;47.660;19.622;2023-02-08T02:06:21;0.50;61.50
78297;DHT22;67555;47.660;19.622;2023-02-08T02:08:56;0.50;61.20
78297;DHT22;67555;47.660;19.622;2023-02-08T02:11:28;0.50;61.00
78297;DHT22;67555;47.660;19.622;2023-02-08T02:13:54;0.50;60.60
78297;DHT22;67555;47.660;19.622;2023-02-08T02:16:19;0.50;60.50
78297;DHT22;67555;47.660;19.622;2023-02-08T02:18:45;0.40;60.60
78297;DHT22;67555;47.660;19.622;2023-02-08T02:21:24;0.40;60.70
78297;DHT22;67555;47.660;19.622;2023-02-08T02:32:25;0.10;61.10
78297;DHT22;67555;47.660;19.622;2023-02-08T02:37:54;0.00;61.60
78297;DHT22;67555;47.660;19.622;2023-02-08T02:51:46;-0.40;62.90
78297;DHT22;67555;47.660;19.622;2023-02-08T02:54:19;-0.50;63.10
78297;DHT22;67555;47.660;19.622;2023-02-08T02:56:52;-0.60;63.30
78297;DHT22;67555;47.660;19.622;2023-02-08T02:59:21;-0.60;63.30
78297;DHT22;67555;47.660;19.622;2023-02-08T03:01:49;-0.60;63.40
78297;DHT22;67555;47.660;19.622;2023-02-08T03:07:16;-0.60;63.50
78297;DHT22;67555;47.660;19.622;2023-02-08T03:15:19;-0.80;63.90
78297;DHT22;67555;47.660;19.622;2023-02-08T03:18:34;-0.90;64.00
78297;DHT22;67555;47.660;19.622;2023-02-08T03:26:44;-0.90;64.20
78297;DHT22;67555;47.660;19.622;2023-02-08T03:29:20;-0.90;64.10
78297;DHT22;67555;47.660;19.622;2023-02-08T03:31:57;-0.90;64.20
78297;DHT22;67555;47.660;19.622;2023-02-08T03:37:29;-0.70;63.90
78297;DHT22;67555;47.660;19.622;2023-02-08T03:40:11;-0.70;63.70
78297;DHT22;67555;47.660;19.622;2023-02-08T03:42:38;-0.70;63.60
78297;DHT22;67555;47.660;19.622;2023-02-08T03:45:13;-0.70;63.40
78297;DHT22;67555;47.660;19.622;2023-02-08T03:47:42;-0.70;63.10
78297;DHT22;67555;47.660;19.622;2023-02-08T03:50:11;-0.70;63.00
78297;DHT22;67555;47.660;19.622;2023-02-08T03:52:38;-0.70;62.70
78297;DHT22;67555;47.660;19.622;2023-02-08T03:55:17;-0.60;62.60
78297;DHT22;67555;47.660;19.622;2023-02-08T03:57:57;-0.60;62.60
78297;DHT22;67555;47.660;19.622;2023-02-08T04:00:26;-0.60;62.60
78297;DHT22;67555;47.660;19.622;2023-02-08T04:03:20;-0.60;62.60
78297;DHT22;67555;47.660;19.622;2023-02-08T04:05:48;-0.70;62.80
78297;DHT22;67555;47.660;19.622;2023-02-08T04:08:14;-0.70;63.00
78297;DHT22;67555;47.660;19.622;2023-02-08T04:10:40;-0.70;63.20
78297;DHT22;67555;47.660;19.622;2023-02-08T04:13:05;-0.80;63.30
78297;DHT22;67555;47.660;19.622;2023-02-08T04:15:31;-0.80;63.50
78297;DHT22;67555;47.660;19.622;2023-02-08T04:17:57;-0.90;63.70
78297;DHT22;67555;47.660;19.622;2023-02-08T04:20:25;-0.90;63.70
78297;DHT22;67555;47.660;19.622;2023-02-08T04:22:51;-0.90;63.90
78297;DHT22;67555;47.660;19.622;2023-02-08T04:25:17;-0.90;63.90
78297;DHT22;67555;47.660;19.622;2023-02-08T04:27:44;-0.90;63.90
78297;DHT22;67555;47.660;19.622;2023-02-08T04:30:10;-0.90;63.90
78297;DHT22;67555;47.660;19.622;2023-02-08T04:32:37;-1.00;63.90
78297;DHT22;67555;47.660;19.622;2023-02-08T04:35:04;-1.00;64.00
78297;DHT22;67555;47.660;19.622;2023-02-08T04:37:30;-1.00;64.00
78297;DHT22;67555;47.660;19.622;2023-02-08T04:39:55;-1.10;64.10
78297;DHT22;67555;47.660;19.622;2023-02-08T04:42:21;-1.10;64.20
78297;DHT22;67555;47.660;19.622;2023-02-08T04:44:47;-1.10;64.30
78297;DHT22;67555;47.660;19.622;2023-02-08T04:47:12;-1.10;64.30
78297;DHT22;67555;47.660;19.622;2023-02-08T04:49:38;-1.10;64.30
78297;DHT22;67555;47.660;19.622;2023-02-08T04:52:04;-1.10;64.20
78297;DHT22;67555;47.660;19.622;2023-02-08T04:54:30;-1.20;64.20
78297;DHT22;67555;47.660;19.622;2023-02-08T04:56:55;-1.20;64.20
78297;DHT22;67555;47.660;19.622;2023-02-08T04:59:22;-1.30;64.10
78297;DHT22;67555;47.660;19.622;2023-02-08T05:01:49;-1.30;64.20
78297;DHT22;67555;47.660;19.622;2023-02-08T05:04:15;-1.10;64.00
78297;DHT22;67555;47.660;19.622;2023-02-08T05:06:41;-1.20;63.80
78297;DHT22;67555;47.660;19.622;2023-02-08T05:09:08;-1.30;63.90
78297;DHT22;67555;47.660;19.622;2023-02-08T05:11:34;-1.40;64.10
78297;DHT22;67555;47.660;19.622;2023-02-08T05:14:00;-1.50;64.20
78297;DHT22;67555;47.660;19.622;2023-02-08T05:16:26;-1.50;64.30
78297;DHT22;67555;47.660;19.622;2023-02-08T05:18:54;-1.60;64.50
78297;DHT22;67555;47.660;19.622;2023-02-08T05:21:20;-1.60;64.60
78297;DHT22;67555;47.660;19.622;2023-02-08T05:23:49;-1.70;64.70
78297;DHT22;67555;47.660;19.622;2023-02-08T05:26:15;-1.80;65.00
78297;DHT22;67555;47.660;19.622;2023-02-08T05:28:41;-1.90;65.20
78297;DHT22;67555;47.660;19.622;2023-02-08T05:31:19;-1.90;65.30
78297;DHT22;67555;47.660;19.622;2023-02-08T05:33:46;-2.00;65.30
78297;DHT22;67555;47.660;19.622;2023-02-08T05:36:12;-2.10;65.30
78297;DHT22;67555;47.660;19.622;2023-02-08T05:38:38;-2.10;65.50
78297;DHT22;67555;47.660;19.622;2023-02-08T05:41:04;-2.10;65.60
78297;DHT22;67555;47.660;19.622;2023-02-08T05:43:30;-2.10;65.80
78297;DHT22;67555;47.660;19.622;2023-02-08T05:45:56;-2.10;65.80
78297;DHT22;67555;47.660;19.622;2023-02-08T05:48:21;-2.20;65.90
78297;DHT22;67555;47.660;19.622;2023-02-08T05:50:47;-2.20;66.00
78297;DHT22;67555;47.660;19.622;2023-02-08T05:53:13;-2.20;66.20
78297;DHT22;67555;47.660;19.622;2023-02-08T05:55:39;-2.30;66.30
78297;DHT22;67555;47.660;19.622;2023-02-08T05:58:04;-2.30;66.30
78297;DHT22;67555;47.660;19.622;2023-02-08T06:00:30;-2.30;66.50
78297;DHT22;67555;47.660;19.622;2023-02-08T06:02:57;-2.30;66.50
78297;DHT22;67555;47.660;19.622;2023-02-08T06:05:22;-2.30;66.60
78297;DHT22;67555;47.660;19.622;2023-02-08T06:07:48;-2.40;66.70
78297;DHT22;67555;47.660;19.622;2023-02-08T06:10:14;-2.40;66.70
78297;DHT22;67555;47.660;19.622;2023-02-08T06:12:40;-2.40;66.70
78297;DHT22;67555;47.660;19.622;2023-02-08T06:15:06;-2.40;66.70
78297;DHT22;67555;47.660;19.622;2023-02-08T06:17:32;-2.40;66.80
78297;DHT22;67555;47.660;19.622;2023-02-08T06:19:58;-2.40;66.70
78297;DHT22;67555;47.660;19.622;2023-02-08T06:22:24;-2.30;66.60
78297;DHT22;67555;47.660;19.622;2023-02-08T06:24:50;-2.20;66.20
78297;DHT22;67555;47.660;19.622;2023-02-08T06:27:15;-2.20;66.10
78297;DHT22;67555;47.660;19.622;2023-02-08T06:29:41;-2.20;66.00
78297;DHT22;67555;47.660;19.622;2023-02-08T06:32:08;-2.20;66.00
78297;DHT22;67555;47.660;19.622;2023-02-08T06:34:34;-2.30;66.10
78297;DHT22;67555;47.660;19.622;2023-02-08T06:36:59;-2.30;66.40
78297;DHT22;67555;47.660;19.622;2023-02-08T06:39:27;-2.30;66.40
78297;DHT22;67555;47.660;19.622;2023-02-08T06:41:54;-2.30;66.40
78297;DHT22;67555;47.660;19.622;2023-02-08T06:44:19;-2.30;66.50
78297;DHT22;67555;47.660;19.622;2023-02-08T06:46:45;-2.30;66.70
78297;DHT22;67555;47.660;19.622;2023-02-08T06:49:11;-2.30;66.80
78297;DHT22;67555;47.660;19.622;2023-02-08T06:51:36;-2.30;66.90
78297;DHT22;67555;47.660;19.622;2023-02-08T06:54:02;-2.20;66.90
78297;DHT22;67555;47.660;19.622;2023-02-08T06:56:28;-2.20;67.00
78297;DHT22;67555;47.660;19.622;2023-02-08T06:58:55;-2.20;66.90
78297;DHT22;67555;47.660;19.622;2023-02-08T07:01:21;-2.10;67.00
78297;DHT22;67555;47.660;19.622;2023-02-08T07:03:47;-2.10;67.00
78297;DHT22;67555;47.660;19.622;2023-02-08T07:06:17;-2.10;66.90
78297;DHT22;67555;47.660;19.622;2023-02-08T07:08:44;-2.00;67.00
78297;DHT22;67555;47.660;19.622;2023-02-08T07:11:12;-1.90;67.00
78297;DHT22;67555;47.660;19.622;2023-02-08T07:13:38;-1.80;67.00
78297;DHT22;67555;47.660;19.622;2023-02-08T07:16:05;-1.80;67.10
78297;DHT22;67555;47.660;19.622;2023-02-08T07:18:32;-1.70;66.90
78297;DHT22;67555;47.660;19.622;2023-02-08T07:20:58;-1.50;66.90
78297;DHT22;67555;47.660;19.622;2023-02-08T07:23:24;-1.50;66.90
78297;DHT22;67555;47.660;19.622;2023-02-08T07:26:10;-1.30;66.70
78297;DHT22;67555;47.660;19.622;2023-02-08T07:28:37;-1.20;66.40
78297;DHT22;67555;47.660;19.622;2023-02-08T07:31:10;-1.10;66.20
78297;DHT22;67555;47.660;19.622;2023-02-08T07:33:37;-1.00;66.20
78297;DHT22;67555;47.660;19.622;2023-02-08T07:36:03;-0.90;66.20
78297;DHT22;67555;47.660;19.622;2023-02-08T07:38:30;-0.70;66.10
78297;DHT22;67555;47.660;19.622;2023-02-08T07:41:05;-0.70;66.00
78297;DHT22;67555;47.660;19.622;2023-02-08T07:43:33;-0.50;65.80
78297;DHT22;67555;47.660;19.622;2023-02-08T07:46:07;-0.50;65.80
78297;DHT22;67555;47.660;19.622;2023-02-08T07:48:33;-0.40;65.80
78297;DHT22;67555;47.660;19.622;2023-02-08T07:50:59;-0.40;65.60
78297;DHT22;67555;47.660;19.622;2023-02-08T07:53:25;-0.30;65.40
78297;DHT22;67555;47.660;19.622;2023-02-08T07:55:50;-0.20;65.40
78297;DHT22;67555;47.660;19.622;2023-02-08T07:58:16;-0.10;65.30
78297;DHT22;67555;47.660;19.622;2023-02-08T08:00:42;0.00;65.10
78297;DHT22;67555;47.660;19.622;2023-02-08T08:03:07;0.00;64.90
78297;DHT22;67555;47.660;19.622;2023-02-08T08:05:33;0.00;64.80
78297;DHT22;67555;47.660;19.622;2023-02-08T08:07:59;0.30;64.60
78297;DHT22;67555;47.660;19.622;2023-02-08T08:10:25;0.40;64.30
78297;DHT22;67555;47.660;19.622;2023-02-08T08:12:50;0.60;64.10
78297;DHT22;67555;47.660;19.622;2023-02-08T08:15:16;0.80;63.70
78297;DHT22;67555;47.660;19.622;2023-02-08T08:17:42;1.00;63.30
78297;DHT22;67555;47.660;19.622;2023-02-08T08:20:09;1.30;62.90
78297;DHT22;67555;47.660;19.622;2023-02-08T08:22:35;1.50;62.40
78297;DHT22;67555;47.660;19.622;2023-02-08T08:25:01;1.70;62.00
78297;DHT22;67555;47.660;19.622;2023-02-08T08:27:26;1.90;61.40
78297;DHT22;67555;47.660;19.622;2023-02-08T08:29:52;2.10;61.00
78297;DHT22;67555;47.660;19.622;2023-02-08T08:32:18;2.30;60.60
78297;DHT22;67555;47.660;19.622;2023-02-08T08:34:43;2.50;60.30
78297;DHT22;67555;47.660;19.622;2023-02-08T08:37:09;2.60;59.90
78297;DHT22;67555;47.660;19.622;2023-02-08T08:39:35;2.80;59.50
78297;DHT22;67555;47.660;19.622;2023-02-08T08:42:02;2.90;59.20
78297;DHT22;67555;47.660;19.622;2023-02-08T08:44:30;3.00;58.90
78297;DHT22;67555;47.660;19.622;2023-02-08T08:46:57;3.00;58.40
78297;DHT22;67555;47.660;19.622;2023-02-08T08:49:23;3.10;58.30
78297;DHT22;67555;47.660;19.622;2023-02-08T08:51:49;3.10;58.00
78297;DHT22;67555;47.660;19.622;2023-02-08T08:54:16;3.10;57.80
78297;DHT22;67555;47.660;19.622;2023-02-08T08:56:42;3.10;57.50
78297;DHT22;67555;47.660;19.622;2023-02-08T08:59:07;3.20;57.50
78297;DHT22;67555;47.660;19.622;2023-02-08T09:01:33;3.30;57.40
78297;DHT22;67555;47.660;19.622;2023-02-08T09:03:59;3.40;57.30
78297;DHT22;67555;47.660;19.622;2023-02-08T09:06:24;3.50;57.10
78297;DHT22;67555;47.660;19.622;2023-02-08T09:08:50;3.50;56.60
78297;DHT22;67555;47.660;19.622;2023-02-08T09:11:16;3.50;56.40
78297;DHT22;67555;47.660;19.622;2023-02-08T09:13:42;3.60;56.30
78297;DHT22;67555;47.660;19.622;2023-02-08T09:16:12;3.60;56.20
78297;DHT22;67555;47.660;19.622;2023-02-08T09:18:38;3.70;55.80
78297;DHT22;67555;47.660;19.622;2023-02-08T09:21:08;3.80;55.50
78297;DHT22;67555;47.660;19.622;2023-02-08T09:23:34;3.90;55.30
78297;DHT22;67555;47.660;19.622;2023-02-08T09:26:02;3.90;55.10
78297;DHT22;67555;47.660;19.622;2023-02-08T09:28:28;3.90;55.00
78297;DHT22;67555;47.660;19.622;2023-02-08T09:30:53;4.00;54.70
78297;DHT22;67555;47.660;19.622;2023-02-08T09:33:19;4.00;54.40
78297;DHT22;67555;47.660;19.622;2023-02-08T09:35:45;4.00;54.20
78297;DHT22;67555;47.660;19.622;2023-02-08T09:38:11;4.00;54.20
78297;DHT22;67555;47.660;19.622;2023-02-08T09:40:48;4.00;54.00
78297;DHT22;67555;47.660;19.622;2023-02-08T09:46:18;4.20;53.90
78297;DHT22;67555;47.660;19.622;2023-02-08T09:48:46;4.30;53.50
78297;DHT22;67555;47.660;19.622;2023-02-08T09:54:36;4.40;53.10
78297;DHT22;67555;47.660;19.622;2023-02-08T09:57:04;4.40;52.90
78297;DHT22;67555;47.660;19.622;2023-02-08T09:59:32;4.40;52.70
78297;DHT22;67555;47.660;19.622;2023-02-08T10:07:11;4.50;52.40
78297;DHT22;67555;47.660;19.622;2023-02-08T10:09:37;4.60;52.20
78297;DHT22;67555;47.660;19.622;2023-02-08T10:12:21;4.70;51.90
78297;DHT22;67555;47.660;19.622;2023-02-08T10:20:49;4.90;51.50
78297;DHT22;67555;47.660;19.622;2023-02-08T10:26:40;4.90;51.00
78297;DHT22;67555;47.660;19.622;2023-02-08T10:34:45;4.90;50.80
78297;DHT22;67555;47.660;19.622;2023-02-08T10:37:16;5.00;50.70
78297;DHT22;67555;47.660;19.622;2023-02-08T10:39:43;4.90;50.70
78297;DHT22;67555;47.660;19.622;2023-02-08T10:42:18;4.90;50.60
78297;DHT22;67555;47.660;19.622;2023-02-08T10:45:33;5.00;50.60
78297;DHT22;67555;47.660;19.622;2023-02-08T10:47:46;5.00;50.40
78297;DHT22;67555;47.660;19.622;2023-02-08T10:50:33;5.20;50.30
78297;DHT22;67555;47.660;19.622;2023-02-08T10:52:59;5.30;50.10
78297;DHT22;67555;47.660;19.622;2023-02-08T10:55:26;5.40;49.80
78297;DHT22;67555;47.660;19.622;2023-02-08T10:57:56;5.50;49.70
78297;DHT22;67555;47.660;19.622;2023-02-08T11:00:35;5.50;49.50
78297;DHT22;67555;47.660;19.622;2023-02-08T11:03:23;5.60;49.30
78297;DHT22;67555;47.660;19.622;2023-02-08T11:05:49;5.70;49.10
78297;DHT22;67555;47.660;19.622;2023-02-08T11:08:21;5.70;48.90
78297;DHT22;67555;47.660;19.622;2023-02-08T11:11:08;5.70;48.70
78297;DHT22;67555;47.660;19.622;2023-02-08T11:13:43;5.80;48.60
78297;DHT22;67555;47.660;19.622;2023-02-08T11:16:11;5.80;48.40
78297;DHT22;67555;47.660;19.622;2023-02-08T11:18:48;5.80;48.30
78297;DHT22;67555;47.660;19.622;2023-02-08T11:21:21;5.80;48.00
78297;DHT22;67555;47.660;19.622;2023-02-08T11:23:53;5.80;48.00
78297;DHT22;67555;47.660;19.622;2023-02-08T11:26:34;5.80;47.80
78297;DHT22;67555;47.660;19.622;2023-02-08T11:29:12;5.70;47.80
78297;DHT22;67555;47.660;19.622;2023-02-08T11:34:24;5.80;47.90
78297;DHT22;67555;47.660;19.622;2023-02-08T11:36:50;5.80;47.70
78297;DHT22;67555;47.660;19.622;2023-02-08T11:39:30;5.80;47.70
78297;DHT22;67555;47.660;19.622;2023-02-08T11:41:59;5.90;47.60
78297;DHT22;67555;47.660;19.622;2023-02-08T11:44:32;6.00;47.30
78297;DHT22;67555;47.660;19.622;2023-02-08T11:47:06;6.10;47.20
78297;DHT22;67555;47.660;19.622;2023-02-08T11:49:37;6.10;47.00
78297;DHT22;67555;47.660;19.622;2023-02-08T11:52:05;6.10;47.10
78297;DHT22;67555;47.660;19.622;2023-02-08T11:54:40;6.20;47.00
78297;DHT22;67555;47.660;19.622;2023-02-08T11:57:18;6.20;46.50
78297;DHT22;67555;47.660;19.622;2023-02-08T11:59:49;6.20;46.50
78297;DHT22;67555;47.660;19.622;2023-02-08T12:02:36;6.30;46.50
78297;DHT22;67555;47.660;19.622;2023-02-08T12:05:08;6.30;46.30
78297;DHT22;67555;47.660;19.622;2023-02-08T12:22:07;6.50;45.80
78297;DHT22;67555;47.660;19.622;2023-02-08T12:30:18;6.70;45.20
78297;DHT22;67555;47.660;19.622;2023-02-08T12:35:56;7.00;44.60
78297;DHT22;67555;47.660;19.622;2023-02-08T12:50:47;7.50;43.00
78297;DHT22;67555;47.660;19.622;2023-02-08T12:53:55;7.80;42.60
78297;DHT22;67555;47.660;19.622;2023-02-08T12:56:25;8.00;42.30
78297;DHT22;67555;47.660;19.622;2023-02-08T12:58:57;8.30;42.00
78297;DHT22;67555;47.660;19.622;2023-02-08T13:01:29;8.60;41.50
78297;DHT22;67555;47.660;19.622;2023-02-08T13:04:06;8.70;41.10
78297;DHT22;67555;47.660;19.622;2023-02-08T13:06:47;8.80;40.90
78297;DHT22;67555;47.660;19.622;2023-02-08T13:09:27;8.90;40.60
78297;DHT22;67555;47.660;19.622;2023-02-08T13:12:10;8.90;40.40
78297;DHT22;67555;47.660;19.622;2023-02-08T13:15:01;9.00;40.20
78297;DHT22;67555;47.660;19.622;2023-02-08T13:17:33;9.20;40.10
78297;DHT22;67555;47.660;19.622;2023-02-08T13:20:30;9.30;39.90
78297;DHT22;67555;47.660;19.622;2023-02-08T13:23:02;9.40;39.50
78297;DHT22;67555;47.660;19.622;2023-02-08T13:25:35;9.40;39.40
78297;DHT22;67555;47.660;19.622;2023-02-08T13:28:06;9.40;39.00
78297;DHT22;67555;47.660;19.622;2023-02-08T13:30:36;9.50;39.00
78297;DHT22;67555;47.660;19.622;2023-02-08T13:33:14;9.50;38.80
78297;DHT22;67555;47.660;19.622;2023-02-08T13:35:41;9.50;38.40
78297;DHT22;67555;47.660;19.622;2023-02-08T13:38:25;9.40;38.30
78297;DHT22;67555;47.660;19.622;2023-02-08T13:41:22;9.40;38.30
78297;DHT22;67555;47.660;19.622;2023-02-08T13:43:53;9.20;38.20
78297;DHT22;67555;47.660;19.622;2023-02-08T13:46:22;9.00;38.50
78297;DHT22;67555;47.660;19.622;2023-02-08T13:48:51;8.80;38.50
78297;DHT22;67555;47.660;19.622;2023-02-08T13:56:51;8.10;39.20
78297;DHT22;67555;47.660;19.622;2023-02-08T13:59:27;7.80;39.40
78297;DHT22;67555;47.660;19.622;2023-02-08T14:04:52;7.40;39.70
78297;DHT22;67555;47.660;19.622;2023-02-08T14:07:32;7.20;39.80
78297;DHT22;67555;47.660;19.622;2023-02-08T14:12:58;6.80;40.30
78297;DHT22;67555;47.660;19.622;2023-02-08T14:15:30;6.70;40.40
78297;DHT22;67555;47.660;19.622;2023-02-08T14:17:58;6.60;40.50
78297;DHT22;67555;47.660;19.622;2023-02-08T14:23:03;6.50;40.70
78297;DHT22;67555;47.660;19.622;2023-02-08T14:25:40;6.40;40.60
78297;DHT22;67555;47.660;19.622;2023-02-08T14:28:15;6.30;40.70
78297;DHT22;67555;47.660;19.622;2023-02-08T14:30:50;6.20;40.90
78297;DHT22;67555;47.660;19.622;2023-02-08T14:33:22;6.10;40.90
78297;DHT22;67555;47.660;19.622;2023-02-08T14:36:15;6.10;41.00
78297;DHT22;67555;47.660;19.622;2023-02-08T14:38:51;6.00;41.00
78297;DHT22;67555;47.660;19.622;2023-02-08T14:47:12;5.70;41.30
78297;DHT22;67555;47.660;19.622;2023-02-08T14:49:42;5.70;41.50
78297;DHT22;67555;47.660;19.622;2023-02-08T14:52:14;5.60;41.50
78297;DHT22;67555;47.660;19.622;2023-02-08T14:55:02;5.60;41.60
78297;DHT22;67555;47.660;19.622;2023-02-08T14:57:34;5.50;41.70
78297;DHT22;67555;47.660;19.622;2023-02-08T15:00:05;5.50;41.90
78297;DHT22;67555;47.660;19.622;2023-02-08T15:02:32;5.50;41.90
78297;DHT22;67555;47.660;19.622;2023-02-08T15:05:01;5.50;42.00
78297;DHT22;67555;47.660;19.622;2023-02-08T15:10:03;5.50;41.90
78297;DHT22;67555;47.660;19.622;2023-02-08T15:12:32;5.50;42.00
78297;DHT22;67555;47.660;19.622;2023-02-08T15:14:59;5.50;42.10
78297;DHT22;67555;47.660;19.622;2023-02-08T15:17:36;5.30;42.20
78297;DHT22;67555;47.660;19.622;2023-02-08T15:20:14;5.30;42.40
78297;DHT22;67555;47.660;19.622;2023-02-08T15:22:43;5.30;42.50
78297;DHT22;67555;47.660;19.622;2023-02-08T15:25:31;5.30;42.50
78297;DHT22;67555;47.660;19.622;2023-02-08T15:28:00;5.20;42.50
78297;DHT22;67555;47.660;19.622;2023-02-08T15:30:27;5.10;42.60
78297;DHT22;67555;47.660;19.622;2023-02-08T15:32:53;5.00;42.60
78297;DHT22;67555;47.660;19.622;2023-02-08T15:35:20;5.00;42.70
78297;DHT22;67555;47.660;19.622;2023-02-08T15:37:48;4.90;42.80
78297;DHT22;67555;47.660;19.622;2023-02-08T15:40:40;4.90;43.00
78297;DHT22;67555;47.660;19.622;2023-02-08T15:45:32;4.70;43.20
78297;DHT22;67555;47.660;19.622;2023-02-08T15:48:00;4.60;43.40
78297;DHT22;67555;47.660;19.622;2023-02-08T15:50:27;4.40;43.60
78297;DHT22;67555;47.660;19.622;2023-02-08T15:52:58;4.30;43.70
78297;DHT22;67555;47.660;19.622;2023-02-08T15:55:27;4.20;43.90
78297;DHT22;67555;47.660;19.622;2023-02-08T15:58:07;4.10;44.10
78297;DHT22;67555;47.660;19.622;2023-02-08T16:00:41;4.00;44.30
78297;DHT22;67555;47.660;19.622;2023-02-08T16:03:19;3.90;44.40
78297;DHT22;67555;47.660;19.622;2023-02-08T16:05:59;3.70;44.60
78297;DHT22;67555;47.660;19.622;2023-02-08T16:08:29;3.50;45.00
78297;DHT22;67555;47.660;19.622;2023-02-08T16:11:01;3.40;45.30
78297;DHT22;67555;47.660;19.622;2023-02-08T16:13:30;3.30;45.40
78297;DHT22;67555;47.660;19.622;2023-02-08T16:16:23;3.20;45.50
78297;DHT22;67555;47.660;19.622;2023-02-08T16:21:40;3.10;45.80
78297;DHT22;67555;47.660;19.622;2023-02-08T16:26:57;3.00;45.90
78297;DHT22;67555;47.660;19.622;2023-02-08T16:29:36;3.00;46.00
78297;DHT22;67555;47.660;19.622;2023-02-08T16:32:33;3.00;46.10
78297;DHT22;67555;47.660;19.622;2023-02-08T16:35:11;2.90;46.20
78297;DHT22;67555;47.660;19.622;2023-02-08T16:37:38;2.80;46.20
78297;DHT22;67555;47.660;19.622;2023-02-08T16:43:29;2.80;46.40
78297;DHT22;67555;47.660;19.622;2023-02-08T16:48:41;2.60;46.60
78297;DHT22;67555;47.660;19.622;2023-02-08T16:51:19;2.50;46.70
78297;DHT22;67555;47.660;19.622;2023-02-08T16:53:47;2.50;46.80
78297;DHT22;67555;47.660;19.622;2023-02-08T16:56:13;2.50;46.90
78297;DHT22;67555;47.660;19.622;2023-02-08T16:58:39;2.50;47.00
78297;DHT22;67555;47.660;19.622;2023-02-08T17:01:07;2.50;47.00
78297;DHT22;67555;47.660;19.622;2023-02-08T17:03:34;2.40;47.20
78297;DHT22;67555;47.660;19.622;2023-02-08T17:06:02;2.40;47.40
78297;DHT22;67555;47.660;19.622;2023-02-08T17:08:30;2.30;47.50
78297;DHT22;67555;47.660;19.622;2023-02-08T17:10:57;2.30;47.50
78297;DHT22;67555;47.660;19.622;2023-02-08T17:13:23;2.30;47.60
78297;DHT22;67555;47.660;19.622;2023-02-08T17:15:52;2.20;47.60
78297;DHT22;67555;47.660;19.622;2023-02-08T17:18:19;2.20;47.80
78297;DHT22;67555;47.660;19.622;2023-02-08T17:20:46;2.20;47.80
78297;DHT22;67555;47.660;19.622;2023-02-08T17:23:13;2.10;47.90
78297;DHT22;67555;47.660;19.622;2023-02-08T17:25:40;2.10;48.00
78297;DHT22;67555;47.660;19.622;2023-02-08T17:28:10;2.10;48.00
78297;DHT22;67555;47.660;19.622;2023-02-08T17:30:41;2.10;48.00
78297;DHT22;67555;47.660;19.622;2023-02-08T17:33:08;2.00;48.10
78297;DHT22;67555;47.660;19.622;2023-02-08T17:35:36;2.00;48.20
78297;DHT22;67555;47.660;19.622;2023-02-08T17:38:03;2.00;48.20
78297;DHT22;67555;47.660;19.622;2023-02-08T17:40:32;1.90;48.30
78297;DHT22;67555;47.660;19.622;2023-02-08T17:42:59;1.90;48.30
78297;DHT22;67555;47.660;19.622;2023-02-08T17:45:25;1.90;48.40
78297;DHT22;67555;47.660;19.622;2023-02-08T17:47:53;1.90;48.50
78297;DHT22;67555;47.660;19.622;2023-02-08T17:50:20;1.80;48.50
78297;DHT22;67555;47.660;19.622;2023-02-08T17:52:47;1.80;48.60
78297;DHT22;67555;47.660;19.622;2023-02-08T17:55:14;1.80;48.70
78297;DHT22;67555;47.660;19.622;2023-02-08T17:57:41;1.70;48.80
78297;DHT22;67555;47.660;19.622;2023-02-08T18:00:16;1.70;48.90
78297;DHT22;67555;47.660;19.622;2023-02-08T18:02:49;1.70;49.00